This is the latest recevied weather packets stored in our database for station/object SV9TNF-51. If no packets are shown the sender has not sent any weather packets the latest 10 day(s).
| Time | Temp. | Humidity | Pressure | Rain* | Wind** | Luminosity | Snow |
|---|---|---|---|---|---|---|---|
| 1788640072 | 25° C | 43% | 1014.6 hPa | 0 mm | 3.13 m/s, 190° | - | - |
| 1788639772 | 25.56° C | 52% | 1014.6 hPa | 0 mm | 0 m/s | - | - |
| 1788639472 | 25.56° C | 48% | 1014.6 hPa | 0 mm | 0.89 m/s, 125° | - | - |
| 1788639172 | 25.56° C | 45% | 1014.6 hPa | 0 mm | 4.47 m/s, 359° | - | - |
| 1788638872 | 25.56° C | 44% | 1014.6 hPa | 0 mm | 4.47 m/s, 357° | - | - |
| 1788638572 | 25.56° C | 45% | 1014.6 hPa | 0 mm | 4.92 m/s, 46° | - | - |
| 1788638272 | 25° C | 43% | 1014.6 hPa | 0 mm | 5.81 m/s, 321° | - | - |
| 1788637971 | 25.56° C | 43% | 1014.6 hPa | 0 mm | 3.13 m/s, 73° | - | - |
| 1788637671 | 25° C | 44% | 1014.6 hPa | 0 mm | 3.58 m/s, 56° | - | - |
| 1788637371 | 25° C | 48% | 1014.6 hPa | 0 mm | 6.26 m/s, 330° | - | - |
| 1788637071 | 25° C | 45% | 1014.6 hPa | 0 mm | 1.79 m/s, 283° | - | - |
| 1788636771 | 25.56° C | 44% | 1014.6 hPa | 0 mm | 0 m/s | - | - |
| 1788636471 | 25.56° C | 44% | 1014.6 hPa | 0 mm | 0 m/s | - | - |
| 1788636171 | 25.56° C | 45% | 1014.6 hPa | 0 mm | 0 m/s | - | - |
| 1788635871 | 26.67° C | 43% | 1014.6 hPa | 0 mm | 0.89 m/s, 104° | - | - |
| 1788635570 | 26.67° C | 44% | 1014.6 hPa | 0 mm | 2.24 m/s, 111° | - | - |
| 1788635271 | 26.67° C | 43% | 1014.6 hPa | 0 mm | 2.24 m/s, 42° | - | - |
| 1788634970 | 26.67° C | 40% | 1014.6 hPa | 0 mm | 1.34 m/s, 126° | - | - |
| 1788634671 | 26.67° C | 41% | 1014.6 hPa | 0 mm | 0 m/s | - | - |
| 1788634370 | 26.67° C | 40% | 1014.6 hPa | 0 mm | 1.79 m/s, 119° | - | - |
| 1788634070 | 26.67° C | 40% | 1014.6 hPa | 0 mm | 1.79 m/s, 119° | - | - |
| 1788633770 | 26.67° C | 41% | 1014.6 hPa | 0 mm | 1.34 m/s, 87° | - | - |
| 1788633470 | 26.67° C | 40% | 1014.6 hPa | 0 mm | 0 m/s | - | - |
| 1788633170 | 26.67° C | 39% | 1014.6 hPa | 0 mm | 3.58 m/s, 320° | - | - |
| 1788632870 | 27.22° C | 37% | 1014.6 hPa | 0 mm | 5.81 m/s, 355° | - | - |
* Rain latest hour (hover to see other rain measurements)
** Current wind speed in m/s (hover to see current wind gust speed)